createdAt,value
2018-05-10T00:01:59.439Z,14.57
2018-05-10T00:04:26.976Z,10.20
2018-05-10T00:06:54.666Z,10.10
2018-05-10T00:09:22.171Z,9.50
2018-05-10T00:11:50.463Z,8.83
2018-05-10T00:14:18.756Z,12.53
2018-05-10T00:16:46.298Z,8.73
2018-05-10T00:19:14.600Z,11.80
2018-05-10T00:21:42.174Z,12.83
2018-05-10T00:24:09.720Z,8.93
2018-05-10T00:26:37.328Z,10.73
2018-05-10T00:29:04.944Z,8.83
2018-05-10T00:31:32.460Z,9.23
2018-05-10T00:34:00.775Z,9.43
2018-05-10T00:36:28.377Z,7.93
2018-05-10T00:38:55.944Z,8.27
2018-05-10T00:41:23.500Z,7.70
2018-05-10T00:43:51.093Z,9.77
2018-05-10T00:46:18.618Z,12.90
2018-05-10T00:48:46.187Z,9.37
2018-05-10T00:51:13.728Z,8.57
2018-05-10T00:53:41.247Z,10.53
2018-05-10T00:56:08.805Z,11.43
2018-05-10T00:58:36.302Z,9.13
2018-05-10T01:01:03.836Z,10.83
2018-05-10T01:03:31.346Z,12.00
2018-05-10T01:05:59.658Z,9.63
2018-05-10T01:08:27.163Z,9.97
2018-05-10T01:10:54.707Z,8.93
2018-05-10T01:13:22.247Z,10.17
2018-05-10T01:15:50.116Z,9.20
2018-05-10T01:18:17.615Z,8.43
2018-05-10T01:20:45.929Z,8.80
2018-05-10T01:23:13.459Z,9.17
2018-05-10T01:25:41.751Z,9.00
2018-05-10T01:28:09.325Z,9.17
2018-05-10T01:30:36.845Z,9.17
2018-05-10T01:33:05.222Z,8.90
2018-05-10T01:35:44.869Z,8.03
2018-05-10T01:38:13.179Z,8.57
2018-05-10T01:40:40.703Z,8.33
2018-05-10T01:43:08.980Z,7.87
2018-05-10T01:45:37.300Z,11.33
2018-05-10T01:48:04.816Z,8.50
2018-05-10T01:50:33.823Z,12.50
2018-05-10T01:53:02.118Z,10.20
2018-05-10T01:55:29.668Z,8.73
2018-05-10T01:57:57.178Z,8.73
2018-05-10T02:00:24.698Z,9.93
2018-05-10T02:02:52.239Z,11.27
2018-05-10T02:05:19.785Z,10.10
2018-05-10T02:07:48.093Z,10.27
2018-05-10T02:10:15.628Z,10.03
2018-05-10T02:12:43.147Z,8.83
2018-05-10T02:15:10.646Z,10.17
2018-05-10T02:17:38.170Z,12.83
2018-05-10T02:20:05.707Z,10.03
2018-05-10T02:22:33.246Z,12.67
2018-05-10T02:25:00.772Z,9.90
2018-05-10T02:27:29.103Z,11.17
2018-05-10T02:29:56.646Z,9.97
2018-05-10T02:32:24.201Z,12.90
2018-05-10T02:34:51.741Z,11.17
2018-05-10T02:37:19.300Z,10.03
2018-05-10T02:39:46.859Z,13.67
2018-05-10T02:42:14.371Z,11.00
2018-05-10T02:44:41.899Z,11.70
2018-05-10T02:47:09.422Z,10.83
2018-05-10T02:49:37.723Z,11.77
2018-05-10T02:52:05.336Z,11.17
2018-05-10T02:54:33.631Z,12.60
2018-05-10T02:57:03.123Z,11.50
2018-05-10T02:59:31.441Z,12.97
2018-05-10T03:01:59.029Z,12.77
2018-05-10T03:04:26.537Z,15.33
2018-05-10T03:06:54.852Z,13.43
2018-05-10T03:09:22.361Z,12.83
2018-05-10T03:11:50.647Z,12.87
2018-05-10T03:14:19.659Z,18.97
2018-05-10T03:16:47.183Z,13.87
2018-05-10T03:19:15.496Z,14.17
2018-05-10T03:21:43.111Z,13.20
2018-05-10T03:24:11.435Z,13.10
2018-05-10T03:26:38.974Z,12.97
2018-05-10T03:29:07.269Z,13.20
2018-05-10T03:31:34.788Z,17.83
2018-05-10T03:34:02.401Z,13.40
2018-05-10T03:36:29.938Z,15.57
2018-05-10T03:38:57.511Z,15.00
2018-05-10T03:41:25.065Z,29.73
2018-05-10T03:43:52.582Z,15.20
2018-05-10T03:46:20.983Z,13.97
2018-05-10T03:48:48.419Z,14.33
2018-05-10T03:51:16.763Z,14.40
2018-05-10T03:53:44.293Z,13.67
2018-05-10T03:56:11.856Z,14.23
2018-05-10T03:58:39.371Z,16.80
2018-05-10T04:01:06.995Z,13.90
2018-05-10T04:03:52.247Z,17.63
2018-05-10T04:06:31.739Z,16.20
2018-05-10T04:09:11.091Z,14.77
2018-05-10T04:11:39.416Z,14.27
2018-05-10T04:14:06.960Z,13.93
2018-05-10T04:16:34.466Z,15.47
2018-05-10T04:19:02.019Z,14.73
2018-05-10T04:21:29.535Z,14.30
2018-05-10T04:23:57.068Z,14.53
2018-05-10T04:26:24.602Z,16.40
2018-05-10T04:28:52.904Z,15.57
2018-05-10T04:31:21.882Z,14.77
2018-05-10T04:33:50.231Z,15.07
2018-05-10T04:36:19.252Z,14.00
2018-05-10T04:38:47.564Z,14.13
2018-05-10T04:41:15.122Z,14.87
2018-05-10T04:43:44.062Z,14.30
2018-05-10T04:46:11.605Z,15.73
2018-05-10T04:48:39.114Z,14.77
2018-05-10T04:51:06.666Z,17.87
2018-05-10T04:53:34.956Z,16.03
2018-05-10T04:56:03.664Z,13.53
2018-05-10T04:58:31.202Z,13.17
2018-05-10T05:00:58.785Z,12.90
2018-05-10T05:03:26.462Z,12.03
2018-05-10T05:05:53.994Z,14.37
2018-05-10T05:08:21.560Z,13.30
2018-05-10T05:10:49.104Z,14.37
2018-05-10T05:13:16.643Z,15.03
2018-05-10T05:15:44.163Z,13.60
2018-05-10T05:18:11.730Z,15.40
2018-05-10T05:20:39.265Z,16.23
2018-05-10T05:23:06.830Z,14.87
2018-05-10T05:25:35.195Z,18.43
2018-05-10T05:28:02.795Z,14.07
2018-05-10T05:30:30.333Z,13.90
2018-05-10T05:32:57.864Z,13.17
2018-05-10T05:35:25.410Z,14.77
2018-05-10T05:37:52.932Z,14.33
2018-05-10T05:40:21.247Z,13.23
2018-05-10T05:42:48.767Z,11.00
2018-05-10T05:45:17.062Z,11.20
2018-05-10T05:47:44.581Z,11.03
2018-05-10T05:50:12.116Z,11.40
2018-05-10T05:52:39.708Z,10.97
2018-05-10T05:55:07.264Z,10.20
2018-05-10T05:57:34.867Z,10.57
2018-05-10T06:00:02.446Z,13.50
2018-05-10T06:02:29.994Z,10.37
2018-05-10T06:04:57.519Z,10.07
2018-05-10T06:07:25.883Z,9.73
2018-05-10T06:09:53.414Z,14.47
2018-05-10T06:12:21.055Z,10.13
2018-05-10T06:14:48.580Z,11.23
2018-05-10T06:17:16.940Z,10.57
2018-05-10T06:19:44.560Z,9.20
2018-05-10T06:22:12.073Z,10.53
2018-05-10T06:24:40.413Z,11.53
2018-05-10T06:27:08.736Z,10.80
2018-05-10T06:29:37.035Z,9.77
2018-05-10T06:32:04.566Z,9.40
2018-05-10T06:34:32.855Z,9.73
2018-05-10T06:37:01.165Z,10.20
2018-05-10T06:39:30.480Z,8.27
2018-05-10T06:41:58.078Z,8.43
2018-05-10T06:44:26.388Z,8.37
2018-05-10T06:46:54.044Z,9.13
2018-05-10T06:49:21.476Z,7.93
2018-05-10T06:51:49.777Z,8.20
2018-05-10T06:54:17.329Z,7.83
2018-05-10T06:56:44.920Z,8.30
2018-05-10T06:59:13.902Z,9.07
2018-05-10T07:01:41.512Z,8.13
2018-05-10T07:04:09.112Z,8.03
2018-05-10T07:06:36.617Z,8.70
2018-05-10T07:09:04.155Z,8.90
2018-05-10T07:11:31.681Z,8.03
2018-05-10T07:13:59.225Z,7.87
2018-05-10T07:16:26.759Z,10.23
2018-05-10T07:18:54.281Z,7.67
2018-05-10T07:21:21.836Z,9.43
2018-05-10T07:23:49.550Z,8.00
2018-05-10T07:26:17.848Z,8.30
2018-05-10T07:28:45.362Z,8.70
2018-05-10T07:31:12.897Z,7.40
2018-05-10T07:33:40.426Z,7.43
2018-05-10T07:36:07.952Z,7.03
2018-05-10T07:38:35.475Z,8.30
2018-05-10T07:41:03.032Z,6.67
2018-05-10T07:43:32.918Z,7.40
2018-05-10T07:46:00.498Z,5.87
2018-05-10T07:48:30.079Z,6.00
2018-05-10T07:50:57.671Z,5.83
2018-05-10T07:53:25.248Z,6.27
2018-05-10T07:55:52.760Z,6.57
2018-05-10T07:58:20.304Z,5.50
2018-05-10T08:00:48.608Z,6.20
2018-05-10T08:03:16.181Z,5.60
2018-05-10T08:05:43.735Z,6.23
2018-05-10T08:08:11.280Z,5.03
2018-05-10T08:10:38.819Z,7.33
2018-05-10T08:13:06.396Z,6.40
2018-05-10T08:15:33.954Z,5.33
2018-05-10T08:18:01.519Z,5.37
2018-05-10T08:20:29.136Z,5.00
2018-05-10T08:22:56.764Z,6.40
2018-05-10T08:25:25.021Z,5.23
2018-05-10T08:27:52.548Z,6.70
2018-05-10T08:30:20.940Z,45.77
2018-05-10T08:32:48.390Z,5.73
2018-05-10T08:35:15.932Z,4.73
2018-05-10T08:37:44.240Z,5.00
2018-05-10T08:40:11.764Z,6.07
2018-05-10T08:42:40.089Z,6.53
2018-05-10T08:45:07.642Z,7.80
2018-05-10T08:47:35.240Z,7.77
2018-05-10T08:50:02.826Z,5.53
2018-05-10T08:52:31.232Z,5.17
2018-05-10T08:54:58.773Z,9.57
2018-05-10T08:57:26.295Z,6.20
2018-05-10T08:59:53.831Z,4.83
2018-05-10T09:02:21.355Z,5.93
2018-05-10T09:04:48.931Z,5.77
2018-05-10T09:07:16.518Z,5.97
2018-05-10T09:09:44.748Z,7.83
2018-05-10T09:12:12.283Z,8.00
2018-05-10T09:14:40.907Z,7.27
2018-05-10T09:17:08.457Z,4.97
2018-05-10T09:19:35.965Z,5.90
2018-05-10T09:22:03.529Z,5.83
2018-05-10T09:24:31.050Z,5.40
2018-05-10T09:26:58.657Z,6.70
2018-05-10T09:29:27.000Z,6.63
2018-05-10T09:31:54.525Z,8.97
2018-05-10T09:34:22.104Z,6.17
2018-05-10T09:36:49.645Z,5.73
2018-05-10T09:39:17.320Z,5.13
2018-05-10T09:41:44.794Z,6.00
2018-05-10T09:44:12.377Z,4.70
2018-05-10T09:46:40.091Z,6.43
2018-05-10T09:49:08.414Z,7.23
2018-05-10T09:51:36.063Z,5.63
2018-05-10T09:54:03.622Z,5.43
2018-05-10T09:56:31.149Z,8.07
2018-05-10T09:58:58.670Z,5.27
2018-05-10T10:01:27.042Z,7.37
2018-05-10T10:03:55.347Z,5.77
2018-05-10T10:06:22.882Z,9.33
2018-05-10T10:08:51.227Z,7.63
2018-05-10T10:11:18.768Z,5.00
2018-05-10T10:13:46.355Z,5.30
2018-05-10T10:16:15.265Z,8.17
2018-05-10T10:18:42.830Z,6.33
2018-05-10T10:21:11.140Z,8.43
2018-05-10T10:23:38.689Z,6.77
2018-05-10T10:26:06.250Z,6.13
2018-05-10T10:28:33.789Z,6.30
2018-05-10T10:31:02.090Z,5.10
2018-05-10T10:33:29.674Z,9.40
2018-05-10T10:35:57.234Z,7.47
2018-05-10T10:38:25.691Z,7.93
2018-05-10T10:40:53.244Z,6.33
2018-05-10T10:43:20.769Z,10.23
2018-05-10T10:45:49.124Z,6.07
2018-05-10T10:48:16.749Z,8.47
2018-05-10T10:50:44.293Z,5.87
2018-05-10T10:53:11.827Z,8.13
2018-05-10T10:55:40.166Z,5.10
2018-05-10T10:58:07.718Z,5.67
2018-05-10T11:00:35.223Z,8.57
2018-05-10T11:03:03.545Z,5.00
2018-05-10T11:05:31.090Z,9.23
2018-05-10T11:07:58.639Z,8.57
2018-05-10T11:10:26.176Z,6.70
2018-05-10T11:12:54.497Z,6.17
2018-05-10T11:15:22.024Z,5.37
2018-05-10T11:17:49.584Z,4.90
2018-05-10T11:20:17.888Z,4.50
2018-05-10T11:22:45.428Z,5.55
2018-05-10T11:25:13.183Z,4.13
2018-05-10T11:27:40.649Z,4.40
2018-05-10T11:30:08.218Z,5.60
2018-05-10T11:32:35.764Z,7.33
2018-05-10T11:35:03.319Z,11.77
2018-05-10T11:37:30.906Z,6.53
2018-05-10T11:39:58.457Z,5.57
2018-05-10T11:42:25.984Z,7.33
2018-05-10T11:44:54.308Z,4.97
2018-05-10T11:47:21.834Z,5.23
2018-05-10T11:49:49.379Z,7.10
2018-05-10T11:52:17.691Z,5.00
2018-05-10T11:54:45.209Z,4.57
2018-05-10T11:57:12.750Z,4.93
2018-05-10T11:59:40.339Z,7.27
2018-05-10T12:02:08.643Z,5.03
2018-05-10T12:04:36.212Z,4.47
2018-05-10T12:07:04.309Z,5.70
2018-05-10T12:09:31.939Z,5.97
2018-05-10T12:11:59.466Z,4.40
2018-05-10T12:14:27.752Z,3.97
2018-05-10T12:16:55.298Z,4.23
2018-05-10T12:19:23.615Z,5.53
2018-05-10T12:21:51.135Z,4.30
2018-05-10T12:24:19.505Z,5.20
2018-05-10T12:26:47.021Z,6.80
2018-05-10T12:29:14.572Z,5.90
2018-05-10T12:31:42.157Z,6.07
2018-05-10T12:34:09.711Z,5.93
2018-05-10T12:36:37.348Z,6.63
2018-05-10T12:39:04.904Z,4.67
2018-05-10T12:41:32.507Z,7.97
2018-05-10T12:44:00.073Z,4.53
2018-05-10T12:46:27.612Z,4.13
2018-05-10T12:48:55.165Z,4.90
2018-05-10T12:51:22.815Z,5.70
2018-05-10T12:53:50.362Z,6.63
2018-05-10T12:56:18.000Z,4.53
2018-05-10T12:58:45.496Z,5.23
2018-05-10T13:01:13.048Z,7.27
2018-05-10T13:03:40.621Z,5.20
2018-05-10T13:06:08.151Z,5.93
2018-05-10T13:08:35.713Z,7.23
2018-05-10T13:11:03.254Z,11.53
2018-05-10T13:13:30.849Z,6.03
2018-05-10T13:15:58.478Z,8.63
2018-05-10T13:18:25.971Z,6.57
2018-05-10T13:20:53.528Z,6.93
2018-05-10T13:23:21.063Z,6.17
2018-05-10T13:25:48.609Z,7.40
2018-05-10T13:28:16.211Z,7.90
2018-05-10T13:30:43.837Z,7.47
2018-05-10T13:33:11.342Z,9.60
2018-05-10T13:35:38.887Z,9.00
2018-05-10T13:38:06.456Z,7.57
2018-05-10T13:40:34.005Z,10.27
2018-05-10T13:43:01.547Z,7.63
2018-05-10T13:45:29.066Z,8.33
2018-05-10T13:47:57.411Z,8.33
2018-05-10T13:50:25.504Z,7.10
2018-05-10T13:52:53.151Z,6.73
2018-05-10T13:55:20.622Z,6.27
2018-05-10T13:57:48.938Z,6.40
2018-05-10T14:00:16.473Z,6.50
2018-05-10T14:02:44.784Z,6.93
2018-05-10T14:05:12.345Z,5.50
2018-05-10T14:07:39.890Z,10.57
2018-05-10T14:10:07.484Z,6.30
2018-05-10T14:12:35.003Z,6.37
2018-05-10T14:15:02.604Z,6.37
2018-05-10T14:17:30.162Z,6.73
2018-05-10T14:19:57.755Z,9.40
2018-05-10T14:22:26.097Z,8.43
2018-05-10T14:24:53.657Z,7.23
2018-05-10T14:27:21.231Z,6.83
2018-05-10T14:29:49.574Z,6.90
2018-05-10T14:32:17.121Z,11.93
2018-05-10T14:34:44.684Z,9.27
2018-05-10T14:37:12.230Z,9.63
2018-05-10T14:39:39.800Z,7.50
2018-05-10T14:42:07.359Z,7.67
2018-05-10T14:44:34.902Z,7.67
2018-05-10T14:47:02.438Z,11.30
2018-05-10T14:49:30.849Z,8.43
2018-05-10T14:51:58.422Z,8.53
2018-05-10T14:54:25.943Z,9.97
2018-05-10T14:56:54.241Z,9.83
2018-05-10T14:59:21.780Z,8.77
2018-05-10T15:01:50.049Z,8.83
2018-05-10T15:04:18.356Z,9.27
2018-05-10T15:06:46.752Z,9.60
2018-05-10T15:09:14.283Z,9.73
2018-05-10T15:11:41.882Z,12.57
2018-05-10T15:14:09.464Z,9.67
2018-05-10T15:16:37.792Z,9.70
2018-05-10T15:19:05.363Z,10.57
2018-05-10T15:21:33.706Z,9.87
2018-05-10T15:24:01.265Z,7.97
2018-05-10T15:26:29.562Z,9.33
2018-05-10T15:28:57.117Z,8.73
2018-05-10T15:31:24.655Z,10.63
2018-05-10T15:33:52.978Z,10.17
2018-05-10T15:36:20.535Z,8.00
2018-05-10T15:38:48.067Z,10.57
2018-05-10T15:41:15.689Z,8.27
2018-05-10T15:43:45.184Z,15.33
2018-05-10T15:46:12.833Z,10.93
2018-05-10T15:48:40.559Z,8.57
2018-05-10T15:51:08.147Z,7.57
2018-05-10T15:53:35.789Z,7.80
2018-05-10T15:56:04.119Z,6.73
2018-05-10T15:58:31.655Z,6.93
2018-05-10T16:00:59.184Z,6.87
2018-05-10T16:03:26.743Z,7.83
2018-05-10T16:05:54.268Z,6.57
2018-05-10T16:08:22.579Z,8.07
2018-05-10T16:10:50.135Z,7.37
2018-05-10T16:13:17.726Z,6.10
2018-05-10T16:15:45.296Z,7.20
2018-05-10T16:18:12.873Z,5.80
2018-05-10T16:20:40.511Z,6.83
2018-05-10T16:23:08.195Z,6.77
2018-05-10T16:28:10.389Z,10.10
2018-05-10T16:30:38.734Z,5.80
2018-05-10T16:33:06.438Z,6.57
2018-05-10T16:35:33.983Z,7.00
2018-05-10T16:38:02.335Z,5.43
2018-05-10T16:40:30.178Z,6.33
2018-05-10T16:42:57.715Z,5.90
2018-05-10T16:45:25.313Z,5.43
2018-05-10T16:47:52.875Z,5.87
2018-05-10T16:50:20.683Z,5.10
2018-05-10T16:52:49.033Z,7.10
2018-05-10T16:55:17.599Z,5.37
2018-05-10T16:57:45.225Z,7.50
2018-05-10T17:00:12.855Z,5.00
2018-05-10T17:02:40.446Z,5.63
2018-05-10T17:05:08.075Z,5.23
2018-05-10T17:07:35.810Z,5.07
2018-05-10T17:10:03.451Z,5.30
2018-05-10T17:12:31.056Z,5.23
2018-05-10T17:14:58.634Z,4.50
2018-05-10T17:17:26.286Z,6.47
2018-05-10T17:19:54.670Z,5.73
2018-05-10T17:22:22.363Z,4.77
2018-05-10T17:24:50.537Z,5.27
2018-05-10T17:27:18.119Z,4.20
2018-05-10T17:29:45.678Z,4.70
2018-05-10T17:32:13.298Z,6.00
2018-05-10T17:34:40.815Z,5.27
2018-05-10T17:37:09.205Z,5.00
2018-05-10T17:39:37.138Z,5.20
2018-05-10T17:42:05.379Z,6.13
2018-05-10T17:44:32.933Z,5.20
2018-05-10T17:47:00.489Z,5.43
2018-05-10T17:49:28.080Z,5.23
2018-05-10T17:51:55.643Z,6.33
2018-05-10T17:54:23.191Z,5.30
2018-05-10T17:56:50.785Z,5.20
2018-05-10T17:59:18.403Z,5.47
2018-05-10T18:01:45.940Z,11.80
2018-05-10T18:04:13.787Z,8.03
2018-05-10T18:06:42.213Z,6.63
2018-05-10T18:09:09.891Z,5.57
2018-05-10T18:11:37.573Z,6.70
2018-05-10T18:14:05.185Z,5.60
2018-05-10T18:16:32.728Z,5.57
2018-05-10T18:19:00.347Z,5.10
2018-05-10T18:21:27.978Z,5.63
2018-05-10T18:23:55.511Z,5.50
2018-05-10T18:26:23.077Z,6.33
2018-05-10T18:28:50.683Z,5.30
2018-05-10T18:31:18.255Z,6.37
2018-05-10T18:33:46.584Z,5.70
2018-05-10T18:36:14.272Z,5.77
2018-05-10T18:38:41.884Z,10.17
2018-05-10T18:41:09.467Z,6.50
2018-05-10T18:43:37.017Z,5.70
2018-05-10T18:46:04.552Z,5.93
2018-05-10T18:48:33.124Z,6.43
2018-05-10T18:51:01.600Z,8.00
2018-05-10T18:53:29.970Z,5.97
2018-05-10T18:55:57.582Z,6.77
2018-05-10T18:58:25.118Z,9.63
2018-05-10T19:00:52.688Z,8.87
2018-05-10T19:03:20.317Z,7.90
2018-05-10T19:05:47.940Z,13.20
2018-05-10T19:08:15.692Z,5.40
2018-05-10T19:10:43.553Z,12.83
2018-05-10T19:13:11.101Z,10.57
2018-05-10T19:15:38.755Z,16.57
2018-05-10T19:18:06.333Z,21.77
2018-05-10T19:20:34.370Z,8.10
2018-05-10T19:23:02.723Z,19.70
2018-05-10T19:25:30.412Z,36.63
2018-05-10T19:27:58.795Z,5.90
2018-05-10T19:30:27.136Z,5.40
2018-05-10T19:32:54.739Z,5.70
2018-05-10T19:35:22.345Z,5.70
2018-05-10T19:37:50.015Z,7.87
2018-05-10T19:40:17.606Z,7.20
2018-05-10T19:42:45.171Z,7.30
2018-05-10T19:45:13.746Z,7.30
2018-05-10T19:47:42.293Z,7.67
2018-05-10T19:50:09.861Z,8.57
2018-05-10T19:52:37.429Z,8.43
2018-05-10T19:55:04.988Z,8.90
2018-05-10T19:57:32.551Z,8.80
2018-05-10T20:00:00.148Z,9.27
2018-05-10T20:02:27.741Z,9.03
2018-05-10T20:04:55.294Z,8.87
2018-05-10T20:07:22.948Z,9.17
2018-05-10T20:09:50.541Z,8.60
2018-05-10T20:12:18.176Z,9.77
2018-05-10T20:14:45.689Z,10.33
2018-05-10T20:17:13.300Z,10.80
2018-05-10T20:19:40.913Z,11.17
2018-05-10T20:22:09.306Z,11.90
2018-05-10T20:24:37.805Z,12.53
2018-05-10T20:27:05.357Z,12.77
2018-05-10T20:29:33.084Z,13.17
2018-05-10T20:32:01.478Z,14.23
2018-05-10T20:34:29.096Z,13.73
2018-05-10T20:36:56.698Z,15.10
2018-05-10T20:39:24.249Z,16.13
2018-05-10T20:41:51.851Z,15.10
2018-05-10T20:44:19.477Z,13.17
2018-05-10T20:46:47.059Z,12.63
2018-05-10T20:49:14.678Z,13.27
2018-05-10T20:51:43.422Z,11.70
2018-05-10T20:54:11.355Z,13.03
2018-05-10T20:56:39.789Z,14.37
2018-05-10T20:59:07.313Z,12.90
2018-05-10T21:01:34.916Z,13.43
2018-05-10T21:04:02.496Z,12.50
2018-05-10T21:06:30.851Z,12.37
2018-05-10T21:08:58.382Z,11.90
2018-05-10T21:11:25.977Z,12.20
2018-05-10T21:13:53.506Z,11.83
2018-05-10T21:16:21.043Z,13.77
2018-05-10T21:18:48.636Z,12.37
2018-05-10T21:21:16.166Z,11.67
2018-05-10T21:23:43.741Z,10.83
2018-05-10T21:26:11.281Z,11.40
2018-05-10T21:28:38.829Z,10.90
2018-05-10T21:31:06.381Z,12.30
2018-05-10T21:33:33.922Z,18.43
2018-05-10T21:36:02.274Z,15.03
2018-05-10T21:38:29.798Z,12.40
2018-05-10T21:40:57.353Z,16.53
2018-05-10T21:43:24.876Z,12.63
2018-05-10T21:45:54.606Z,15.63
2018-05-10T21:48:22.171Z,23.40
2018-05-10T21:50:49.777Z,15.10
2018-05-10T21:53:17.387Z,11.60
2018-05-10T21:55:44.961Z,23.17
2018-05-10T21:58:12.507Z,13.13
2018-05-10T22:00:40.018Z,15.33
2018-05-10T22:03:07.563Z,16.47
2018-05-10T22:05:35.082Z,15.23
2018-05-10T22:08:02.609Z,15.97
2018-05-10T22:10:30.193Z,22.93
2018-05-10T22:12:58.493Z,18.13
2018-05-10T22:15:26.068Z,18.33
2018-05-10T22:17:53.617Z,22.90
2018-05-10T22:20:21.158Z,19.90
2018-05-10T22:22:48.714Z,14.83
2018-05-10T22:25:18.034Z,13.70
2018-05-10T22:27:45.572Z,13.50
2018-05-10T22:30:13.140Z,14.23
2018-05-10T22:32:40.712Z,16.60
2018-05-10T22:35:08.303Z,20.87
2018-05-10T22:37:35.802Z,24.10
2018-05-10T22:40:03.332Z,26.27
2018-05-10T22:42:31.652Z,22.60
2018-05-10T22:44:59.179Z,23.73
2018-05-10T22:47:26.755Z,18.77
2018-05-10T22:49:54.293Z,20.03
2018-05-10T22:52:21.818Z,19.63
2018-05-10T22:54:49.371Z,25.13
2018-05-10T22:57:16.985Z,28.00
2018-05-10T22:59:44.602Z,28.37
2018-05-10T23:02:12.836Z,24.37
2018-05-10T23:04:40.408Z,24.80
2018-05-10T23:07:07.990Z,31.23
2018-05-10T23:09:35.522Z,27.13
2018-05-10T23:12:03.175Z,23.97
2018-05-10T23:14:30.711Z,21.07
2018-05-10T23:16:58.989Z,19.07
2018-05-10T23:19:27.293Z,19.83
2018-05-10T23:21:54.810Z,20.17
2018-05-10T23:24:23.139Z,21.67
2018-05-10T23:26:50.704Z,21.67
2018-05-10T23:29:19.325Z,21.40
2018-05-10T23:31:46.885Z,20.47
2018-05-10T23:34:15.202Z,18.40
2018-05-10T23:36:42.724Z,18.53
2018-05-10T23:39:10.264Z,20.80
2018-05-10T23:41:39.239Z,19.10
2018-05-10T23:44:06.777Z,20.67
2018-05-10T23:46:34.312Z,19.03
2018-05-10T23:49:01.895Z,17.80
2018-05-10T23:51:29.466Z,17.60
2018-05-10T23:53:57.024Z,18.00
2018-05-10T23:56:24.609Z,17.00
2018-05-10T23:58:52.141Z,18.97
